• Join FlightAware (Why Join?)
  • Login
  • US Flag 
05:22PM EST


 

Airport Tracker/Info


-or-


 

Live Flight TrackerFlight Track Log ✈ JBU185 ✈ 21-Apr-2013 ✈ KJFK - KSAN

Flight Track Log - Related Links

Times and Time Zones

All times are in EDT time to prevent confusion due to time zone crossing. See the JBU185 flight status page for this flight to view local times or setup timezone preferences in your user account.

Time Position Orientation Groundspeed Altitude Reporting Facility
EDT Latitude Longitude Course Direction KTS MPH feet Rate Location/Type
05:03PM 40.6500 -73.8500 273° West 200 230 1,800  Level New York TRACON
05:04PM 40.6000 -73.9167 225° Southwest 262 302 3,400 2,160 Climbing New York TRACON
05:05PM 40.5333 -73.9667 210° Southwest 276 318 6,200 2,820 Climbing New York TRACON
05:06PM 40.4667 -74.0167 210° Southwest 290 334 9,100 1,740 Climbing New York TRACON
05:07PM 39.9542 -77.5302 273° West  Level FlightAware Approximate
05:08PM 39.9596 -77.6589 273° West  Level FlightAware Approximate
05:08PM 40.3500 -74.2000 230° Southwest 355 409 11,500  Level New York TRACON
05:08PM 40.3289 -74.2531 242° Southwest 362 417 12,300 2,880 Climbing New York Center
05:09PM 40.2803 -74.3486 236° Southwest 356 410 15,700 2,340 Climbing New York Center
05:10PM 40.2358 -74.4361 236° Southwest 352 405 17,000 660 Climbing New York Center
05:11PM 40.1967 -74.5589 247° West 333 383 17,000 480 Level New York Center
05:12PM 40.1886 -74.6781 265° West 333 383 18,000 1,380 Climbing New York Center
05:13PM 40.1758 -74.8022 262° West 343 395 19,900 1,740 Climbing New York Center
05:14PM 40.1694 -74.9269 266° West 343 395 21,500 1,020 Climbing New York Center
05:15PM 40.1606 -75.0594 265° West 355 409 22,000 840 Climbing New York Center
05:16PM 40.1472 -75.1972 263° West 374 430 23,200 1,260 Climbing New York Center
05:17PM 40.1356 -75.3347 264° West 385 443 24,500 1,200 Climbing New York Center
05:18PM 40.1239 -75.4753 264° West 385 443 25,600 960 Climbing New York Center
05:19PM 40.1119 -75.6183 264° West 390 449 26,500 840 Climbing New York Center
05:20PM 40.0994 -75.7639 264° West 390 449 27,300 960 Climbing New York Center
05:21PM 40.0872 -75.9069 264° West 403 464 28,500 1,080 Climbing New York Center
05:22PM 40.0747 -76.0497 264° West 408 470 29,500 1,080 Climbing New York Center
05:23PM 40.0622 -76.1872 263° West 403 464 30,700 1,020 Climbing New York Center
05:24PM 40.0436 -76.3161 259° West 398 458 31,600 600 Climbing New York Center
05:25PM 40.0328 -76.4533 264° West 398 458 32,000 180 Climbing New York Center
05:26PM 40.0200 -76.5881 263° West 387 445 32,000  Level New York Center
05:27PM 40.0069 -76.7250 263° West 382 440 32,000  Level New York Center
05:28PM 39.9939 -76.8594 263° West 382 440 32,000  Level New York Center
05:29PM 39.9806 -76.9967 263° West 382 440 32,000  Level New York Center
05:30PM 39.9667 -77.1361 263° West 387 445 32,000  Level New York Center
05:32PM 39.9525 -77.3547 265° West 380 437 32,000  Level Cleveland Center
05:33PM 39.9586 -77.4981 273° West 386 444 32,000  Level Cleveland Center
05:34PM 39.9644 -77.6414 273° West 397 457 32,000  Level Cleveland Center
05:35PM 39.9681 -77.7819 272° West 397 457 32,000  Level Cleveland Center
05:36PM 39.9736 -77.9253 273° West 402 463 32,000  Level Cleveland Center
05:37PM 39.9769 -78.0689 272° West 402 463 32,000  Level Cleveland Center
05:38PM 39.9800 -78.2097 272° West 402 463 32,000  Level Cleveland Center
05:39PM 39.9811 -78.3722 271° West 407 468 32,000  Level Cleveland Center
05:40PM 39.9839 -78.5183 271° West 407 468 32,000  Level Cleveland Center
05:41PM 39.9864 -78.6647 271° West 407 468 32,000  Level Cleveland Center
05:42PM 39.9908 -78.8108 272° West 402 463 32,000  Level Cleveland Center
05:43PM 39.9931 -78.9572 271° West 402 463 32,000  Level Cleveland Center
05:44PM 40.0011 -79.0897 275° West 402 463 32,000  Level Cleveland Center
05:45PM 40.0031 -79.2361 271° West 402 463 32,000  Level Cleveland Center
05:46PM 40.0044 -79.3825 271° West 402 463 32,000  Level Cleveland Center
05:47PM 40.0061 -79.5394 271° West 402 463 32,000  Level Cleveland Center
05:48PM 40.0094 -79.6833 272° West 402 463 32,000  Level Cleveland Center
05:49PM 40.0106 -79.8269 271° West 402 463 32,000  Level Cleveland Center
05:50PM 40.0133 -79.9706 271° West 402 463 32,000  Level Cleveland Center
05:51PM 40.0161 -80.1169 271° West 402 463 32,000  Level Cleveland Center
05:52PM 40.0167 -80.2633 270° West 402 463 32,000  Level Cleveland Center
05:53PM 40.0192 -80.4122 271° West 402 463 32,000  Level Cleveland Center
05:54PM 40.0192 -80.5614 270° West 407 468 32,000  Level Cleveland Center
05:55PM 40.0192 -80.7078 270° West 407 468 32,000  Level Cleveland Center
05:56PM 40.0211 -80.8542 271° West 407 468 32,000  Level Cleveland Center
05:57PM 40.0183 -81.0033 269° West 407 468 32,000  Level Cleveland Center
05:58PM 40.0094 -81.2664 268° West 412 474 32,000  Level Indianapolis Center
05:59PM 40.0072 -81.4172 269° West 413 475 32,000  Level Indianapolis Center
06:00PM 40.0044 -81.5692 269° West 414 476 32,000  Level Indianapolis Center
06:01PM 40.0006 -81.7219 268° West 417 480 32,000  Level Indianapolis Center
06:03PM 39.9972 -81.8942 269° West 418 481 32,000  Level Indianapolis Center
06:04PM 39.9942 -82.0461 269° West 416 479 32,000  Level Indianapolis Center
06:05PM 39.9900 -82.1989 268° West 418 481 32,000  Level Indianapolis Center
06:06PM 39.9867 -82.3500 268° West 416 479 32,000  Level Indianapolis Center
06:07PM 39.9817 -82.5022 268° West 415 478 32,000  Level Indianapolis Center
06:08PM 39.9778 -82.6531 268° West 413 475 32,000 -60 Level Indianapolis Center
06:09PM 39.9722 -82.8294 268° West 414 476 31,900  Descending Indianapolis Center
06:10PM 39.9678 -82.9817 268° West 417 480 32,000  Climbing Indianapolis Center
06:11PM 39.9633 -83.1325 268° West 416 479 32,000  Level Indianapolis Center
06:12PM 39.9603 -83.2842 269° West 416 479 32,000  Level Indianapolis Center
06:13PM 39.9550 -83.4339 267° West 417 480 32,000 -60 Level Indianapolis Center
06:14PM 39.9481 -83.6064 267° West 414 476 31,900  Descending Indianapolis Center
06:15PM 39.9428 -83.7539 267° West 411 473 32,000  Climbing Indianapolis Center
06:16PM 39.9372 -83.9039 267° West 413 475 32,000 -60 Level Indianapolis Center
06:17PM 39.9317 -84.0547 267° West 413 475 31,900 -60 Descending Indianapolis Center
06:18PM 39.9250 -84.2039 267° West 412 474 31,900  Level Indianapolis Center
06:19PM 39.9194 -84.3561 267° West 417 480 32,000  Climbing Indianapolis Center
06:20PM 39.9108 -84.5347 266° West 422 486 32,000  Level Indianapolis Center
06:21PM 39.9036 -84.6883 267° West 422 486 32,000  Level Indianapolis Center
06:22PM 39.8961 -84.8428 266° West 422 486 32,000  Level Indianapolis Center
06:23PM 39.8897 -84.9978 267° West 426 490 32,000  Level Indianapolis Center
06:24PM 39.8814 -85.1528 266° West 426 490 32,000  Level Indianapolis Center
06:25PM 39.8731 -85.3086 266° West 427 491 32,000  Level Indianapolis Center
06:26PM 39.8653 -85.4644 266° West 427 491 32,000  Level Indianapolis Center
06:27PM 39.8542 -85.6458 265° West 428 493 32,000  Level Indianapolis Center
06:28PM 39.8458 -85.8008 266° West 428 493 32,000  Level Indianapolis Center
06:29PM 39.8381 -85.9617 266° West 428 493 32,000  Level Indianapolis Center
06:30PM 39.8283 -86.1153 265° West 427 491 32,000  Level Indianapolis Center
06:31PM 39.8194 -86.2703 266° West 428 493 32,000  Level Indianapolis Center
06:33PM 39.8142 -86.4242 267° West 426 490 32,000  Level Indianapolis Center
06:34PM 39.8181 -86.5789 272° West 427 491 32,000 120 Level Indianapolis Center
06:35PM 39.8217 -86.7339 272° West 428 493 32,300 600 Climbing Indianapolis Center
06:36PM 39.8247 -86.9181 271° West 425 489 33,300 780 Climbing Indianapolis Center
06:37PM 39.8281 -87.0708 272° West 423 487 34,000 300 Climbing Indianapolis Center
06:38PM 39.8200 -87.2217 266° West 419 482 34,000  Level Indianapolis Center
06:39PM 39.8075 -87.3739 264° West 421 484 34,000  Level Indianapolis Center
06:40PM 39.7947 -87.5261 264° West 423 487 34,000  Level Indianapolis Center
06:41PM 39.7828 -87.6789 264° West 424 488 34,000  Level Indianapolis Center
06:42PM 39.7700 -87.8311 264° West 424 488 34,000  Level Indianapolis Center
06:43PM 39.7536 -88.0119 263° West 422 486 34,000  Level Indianapolis Center
06:44PM 39.7417 -88.1631 264° West 422 486 34,000  Level Kansas City Center
06:45PM 39.7278 -88.3175 263° West 426 490 34,000  Level Kansas City Center
06:46PM 39.7131 -88.4714 263° West 428 493 34,000  Level Kansas City Center
06:47PM 39.6964 -88.6561 263° West 429 494 34,000  Level Kansas City Center
06:48PM 39.6806 -88.8100 262° West 430 495 34,000  Level Kansas City Center
06:49PM 39.6672 -88.9642 264° West 430 495 34,000  Level Kansas City Center
06:50PM 39.6517 -89.1183 263° West 430 495 34,000  Level Kansas City Center
06:51PM 39.6378 -89.2656 263° West 430 495 34,000  Level Kansas City Center
06:52PM 39.6189 -89.4461 262° West 425 489 34,000  Level Kansas City Center
06:53PM 39.6050 -89.5986 263° West 427 491 34,000  Level Kansas City Center
06:54PM 39.5897 -89.7506 263° West 427 491 34,000  Level Kansas City Center
06:55PM 39.5733 -89.9025 262° West 428 493 34,000  Level Kansas City Center
06:56PM 39.5578 -90.0539 262° West 427 491 34,000  Level Kansas City Center
06:57PM 39.5419 -90.2064 262° West 428 493 34,000  Level Kansas City Center
06:58PM 39.5228 -90.3889 262° West 430 495 34,000  Level Kansas City Center
06:59PM 39.5064 -90.5392 262° West 426 490 34,000  Level Kansas City Center
07:01PM 39.4897 -90.6903 262° West 427 491 34,000  Level Kansas City Center
07:02PM 39.4728 -90.8392 262° West 424 488 34,000  Level Kansas City Center
07:03PM 39.4558 -90.9886 262° West 422 486 34,000  Level Kansas City Center
07:04PM 39.4353 -91.1672 262° West 420 483 34,000  Level Kansas City Center
07:05PM 39.4189 -91.3156 262° West 420 483 34,000  Level Kansas City Center
07:06PM 39.4006 -91.4636 261° West 419 482 34,000  Level Kansas City Center
07:07PM 39.3836 -91.6114 262° West 418 481 34,000  Level Kansas City Center
07:08PM 39.3667 -91.7650 262° West 420 483 34,000  Level Kansas City Center
07:09PM 39.3481 -91.9150 261° West 424 488 34,000  Level Kansas City Center
07:10PM 39.3264 -92.0931 261° West 421 484 34,000  Level Kansas City Center
07:11PM 39.3081 -92.2400 261° West 418 481 34,000  Level Kansas City Center
07:12PM 39.2892 -92.3883 261° West 419 482 34,000  Level Kansas City Center
07:13PM 39.2706 -92.5350 261° West 418 481 34,000  Level Kansas City Center
07:14PM 39.2517 -92.6772 260° West 416 479 34,000  Level Kansas City Center
07:15PM 39.2319 -92.8269 260° West 414 476 34,000  Level Kansas City Center
07:16PM 39.2092 -93.0058 261° West 420 483 34,000  Level Kansas City Center
07:17PM 39.1897 -93.1497 260° West 416 479 34,000  Level Kansas City Center
07:18PM 39.1703 -93.2972 260° West 417 480 34,000  Level Kansas City Center
07:19PM 39.1481 -93.4669 260° West 421 484 34,000  Level Kansas City Center
07:20PM 39.1281 -93.6103 260° West 422 486 34,000  Level Kansas City Center
07:21PM 39.1086 -93.7522 260° West 419 482 34,000  Level Kansas City Center
07:22PM 39.0858 -93.9167 260° West 417 480 34,000  Level Kansas City Center
07:23PM 39.0661 -94.0572 260° West 416 479 34,000  Level Kansas City Center
07:24PM 39.0428 -94.2217 260° West 417 480 34,000  Level Kansas City Center
07:25PM 39.0233 -94.3619 260° West 415 478 34,000  Level Kansas City Center
07:26PM 38.9928 -94.5250 256° West 418 481 34,000  Level Kansas City Center
07:27PM 38.9658 -94.6631 256° West 416 479 34,000  Level Kansas City Center
07:28PM 38.9342 -94.8247 256° West 416 479 34,000  Level Kansas City Center
07:29PM 38.9078 -94.9639 256° West 416 479 34,000  Level Kansas City Center
07:30PM 38.8808 -95.1039 256° West 418 481 34,000  Level Kansas City Center
07:32PM 38.8489 -95.2667 256° West 418 481 34,000  Level Kansas City Center
07:33PM 38.8217 -95.4031 256° West 413 475 34,000  Level Kansas City Center
07:34PM 38.7892 -95.5631 255° West 411 473 34,000  Level Kansas City Center
07:35PM 38.7631 -95.6992 256° West 409 471 34,000  Level Kansas City Center
07:36PM 38.7300 -95.8589 255° West 415 478 34,000  Level Kansas City Center
07:37PM 38.7028 -95.9958 256° West 414 476 34,000  Level Kansas City Center
07:38PM 38.6742 -96.1319 255° West 413 475 34,000  Level Kansas City Center
07:39PM 38.6425 -96.2922 256° West 416 479 34,000  Level Kansas City Center
07:40PM 38.6133 -96.4283 255° West 415 478 34,000  Level Kansas City Center
07:41PM 38.5803 -96.5892 255° West 419 482 34,000  Level Kansas City Center
07:42PM 38.5511 -96.7258 255° West 418 481 34,000  Level Kansas City Center
07:43PM 38.5186 -96.8800 255° West 425 489 34,000  Level Kansas City Center
07:44PM 38.4875 -97.0231 255° West 420 483 34,000  Level Kansas City Center
07:45PM 38.4567 -97.1669 255° West 421 484 34,000  Level Kansas City Center
07:46PM 38.4264 -97.3083 255° West 416 479 34,000  Level Kansas City Center
07:47PM 38.3892 -97.4792 255° West 418 481 34,000  Level Kansas City Center
07:48PM 38.3583 -97.6192 254° West 414 476 34,000  Level Kansas City Center
07:49PM 38.3281 -97.7572 254° West 410 472 34,000  Level Kansas City Center
07:50PM 38.2975 -97.8936 254° West 406 467 34,000  Level Kansas City Center
07:51PM 38.2672 -98.0294 254° West 405 466 34,000  Level Kansas City Center
07:52PM 38.2314 -98.1922 254° West 402 463 34,000  Level Kansas City Center
07:53PM 38.1992 -98.3292 253° West 406 467 34,000  Level Kansas City Center
07:54PM 38.1689 -98.4650 254° West 402 463 34,000  Level Kansas City Center
07:55PM 38.1397 -98.5994 255° West 399 459 34,000  Level Kansas City Center
07:56PM 38.1069 -98.7331 253° West 398 458 34,000  Level Kansas City Center
07:57PM 38.0708 -98.8947 254° West 397 457 34,000  Level Kansas City Center
07:58PM 38.0397 -99.0294 254° West 398 458 34,000  Level Kansas City Center
07:59PM 38.0064 -99.1644 253° West 401 461 34,000  Level Kansas City Center
08:00PM 37.9744 -99.2994 253° West 402 463 34,000  Level Kansas City Center
08:01PM 37.9436 -99.4350 254° West 401 461 34,000  Level Kansas City Center
08:03PM 37.9050 -99.5914 253° West 397 457 34,000  Level Kansas City Center
08:04PM 37.8739 -99.7206 253° West 400 460 34,000  Level Kansas City Center
08:05PM 37.8381 -99.8703 253° West 399 459 34,000  Level Kansas City Center
08:06PM 37.8064 -100.0019 253° West 406 467 34,100  Climbing Kansas City Center
08:07PM 37.7744 -100.1314 253° West 404 465 34,000 -60 Descending Kansas City Center
08:08PM 37.7372 -100.2803 252° West 400 460 34,000  Level Kansas City Center
08:09PM 37.7061 -100.4094 253° West 400 460 34,000  Level Kansas City Center
08:10PM 37.6700 -100.5525 252° West 398 458 34,000  Level Kansas City Center
08:11PM 37.6367 -100.6869 253° West 400 460 34,000  Level Kansas City Center
08:12PM 37.6028 -100.8225 253° West 403 464 34,000  Level Kansas City Center
08:13PM 37.5675 -100.9594 252° West 409 471 34,000  Level Kansas City Center
08:14PM 37.5336 -101.0950 253° West 408 470 34,000  Level Kansas City Center
08:15PM 37.4922 -101.2569 252° West 404 465 34,000  Level Kansas City Center
08:16PM 37.4592 -101.3878 252° West 409 471 34,000  Level Kansas City Center
08:17PM 37.4256 -101.5175 252° West 408 470 34,000  Level Kansas City Center
08:18PM 37.3861 -101.6697 252° West 410 472 34,000  Level Kansas City Center
08:19PM 37.3517 -101.7989 251° West 408 470 34,000  Level Kansas City Center
08:20PM 37.3253 -101.9086 253° West 410 472 34,000  Level Albuquerque Center
08:21PM 37.2914 -102.0378 252° West 407 468 34,000  Level Albuquerque Center
08:22PM 37.2525 -102.1811 251° West 406 467 34,000  Level Albuquerque Center
08:23PM 37.2197 -102.3100 252° West 406 467 34,000  Level Albuquerque Center
08:24PM 37.1783 -102.4603 251° West 407 468 34,000  Level Albuquerque Center
08:25PM 37.1428 -102.5900 251° West 410 472 34,000  Level Albuquerque Center
08:26PM 37.1086 -102.7192 252° West 408 470 34,000  Level Albuquerque Center
08:27PM 37.0667 -102.8692 251° West 407 468 34,000  Level Albuquerque Center
08:28PM 37.0306 -102.9992 251° West 411 473 34,000  Level Albuquerque Center
08:29PM 36.9903 -103.1472 251° West 404 465 34,000  Level Albuquerque Center
08:30PM 36.9564 -103.2728 251° West 400 460 34,000  Level Albuquerque Center
08:31PM 36.9214 -103.3986 251° West 399 459 34,000  Level Albuquerque Center
08:32PM 36.8794 -103.5481 251° West 405 466 34,000  Level Albuquerque Center
08:33PM 36.8436 -103.6769 251° West 407 468 34,000  Level Albuquerque Center
08:34PM 36.8025 -103.8208 250° West 398 458 34,000  Level Albuquerque Center
08:35PM 36.7689 -103.9422 251° West 389 448 34,000  Level Albuquerque Center
08:36PM 36.7319 -104.0678 250° West 396 456 34,100  Climbing Albuquerque Center
08:37PM 36.6897 -104.2158 250° West 402 463 34,000 -60 Descending Albuquerque Center
08:38PM 36.6503 -104.3497 250° West 400 460 34,000  Level Albuquerque Center
08:39PM 36.6128 -104.4781 250° West 396 456 34,000  Level Albuquerque Center
08:40PM 36.5753 -104.6086 250° West 397 457 34,000  Level Albuquerque Center
08:41PM 36.5383 -104.7375 250° West 395 455 34,000  Level Albuquerque Center
08:42PM 36.5008 -104.8656 250° West 393 452 34,000  Level Albuquerque Center
08:43PM 36.4633 -104.9942 250° West 393 452 34,000  Level Albuquerque Center
08:44PM 36.4247 -105.1217 249° West 393 452 34,000  Level Albuquerque Center
08:45PM 36.3844 -105.2561 250° West 406 467 34,100  Climbing Albuquerque Center
08:46PM 36.3389 -105.4092 250° West 404 465 34,000  Descending Albuquerque Center
08:47PM 36.2986 -105.5394 249° West 403 464 34,100  Climbing Albuquerque Center
08:48PM 36.2619 -105.6592 249° West 386 444 34,000 -60 Descending Albuquerque Center
08:49PM 36.2253 -105.7822 250° West 381 438 34,000  Level Albuquerque Center
08:50PM 36.1889 -105.9089 250° West 389 448 34,000  Level Albuquerque Center
08:51PM 36.1492 -106.0328 248° West 390 449 34,000  Level Albuquerque Center
08:53PM 36.1103 -106.1592 249° West 393 452 34,000  Level Albuquerque Center
08:54PM 36.0722 -106.2917 250° West 405 466 34,000  Level Albuquerque Center
08:55PM 36.0317 -106.4217 249° West 407 468 34,000  Level Albuquerque Center
08:56PM 35.9908 -106.5517 249° West 408 470 34,000  Level Albuquerque Center
08:57PM 35.9433 -106.7031 249° West 400 460 34,000  Level Albuquerque Center
08:59PM 35.8597 -106.9675 249° West 401 461 34,000  Level Albuquerque Center
09:00PM 35.8203 -107.0911 249° West 404 465 34,000  Level Albuquerque Center
09:01PM 35.7744 -107.2336 248° West 402 463 34,000  Level Albuquerque Center
09:02PM 35.7361 -107.3542 249° West 398 458 34,000  Level Albuquerque Center
09:03PM 35.6983 -107.4742 249° West 394 453 34,000  Level Albuquerque Center
09:04PM 35.6536 -107.6150 249° West 394 453 34,000  Level Albuquerque Center
09:05PM 35.6139 -107.7353 248° West 395 455 34,000 360 Level Albuquerque Center
09:06PM 35.5664 -107.8794 248° West 402 463 34,800 780 Climbing Albuquerque Center
09:07PM 35.5267 -108.0033 249° West 406 467 35,700 540 Climbing Albuquerque Center
09:08PM 35.4861 -108.1242 248° West 403 464 36,000 120 Climbing Albuquerque Center
09:09PM 35.4411 -108.2636 248° West 396 456 36,000  Level Albuquerque Center
09:10PM 35.4014 -108.3828 248° West 394 453 36,000  Level Albuquerque Center
09:11PM 35.3558 -108.5197 248° West 389 448 36,000  Level Albuquerque Center
09:12PM 35.3167 -108.6381 248° West 391 450 36,000  Level Albuquerque Center
09:13PM 35.2772 -108.7542 247° West 388 447 36,000  Level Albuquerque Center
09:14PM 35.2100 -108.8836 238° Southwest 402 463 36,000  Level Albuquerque Center
09:15PM 35.1483 -108.9936 236° Southwest 408 470 36,000  Level Albuquerque Center
09:16PM 35.0869 -109.1033 236° Southwest 408 470 36,000  Level Albuquerque Center
09:17PM 35.0139 -109.2303 235° Southwest 408 470 36,000  Level Albuquerque Center
09:18PM 34.9517 -109.3386 235° Southwest 407 468 36,000  Level Albuquerque Center
09:19PM 34.8783 -109.4658 235° Southwest 410 472 36,000  Level Albuquerque Center
09:20PM 34.8147 -109.5719 234° Southwest 406 467 36,000  Level Albuquerque Center
09:21PM 34.7531 -109.6822 236° Southwest 408 470 36,000  Level Albuquerque Center
09:22PM 34.6783 -109.8097 235° Southwest 413 475 36,000  Level Albuquerque Center
09:23PM 34.6156 -109.9192 235° Southwest 412 474 36,000  Level Albuquerque Center
09:24PM 34.5419 -110.0478 235° Southwest 415 478 36,000  Level Albuquerque Center
09:25PM 34.4783 -110.1569 235° Southwest 414 476 36,000  Level Albuquerque Center
09:26PM 34.4042 -110.2847 235° Southwest 415 478 36,000  Level Albuquerque Center
09:27PM 34.3386 -110.3947 234° Southwest 418 481 36,000  Level Albuquerque Center
09:28PM 34.2772 -110.5081 237° Southwest 424 488 36,000  Level Albuquerque Center
09:29PM 34.1958 -110.6356 232° Southwest 427 491 36,000  Level Albuquerque Center
09:30PM 34.1367 -110.7369 235° Southwest 423 487 36,000  Level Albuquerque Center
09:31PM 34.0683 -110.8519 234° Southwest 422 486 36,000  Level Albuquerque Center
09:32PM 34.0000 -110.9664 234° Southwest 421 484 36,000  Level Albuquerque Center
09:33PM 33.9194 -111.1036 235° Southwest 416 479 36,000  Level Albuquerque Center
09:34PM 33.8514 -111.2164 234° Southwest 416 479 36,000  Level Albuquerque Center
09:36PM 33.7825 -111.3294 234° Southwest 418 481 36,000  Level Albuquerque Center
09:37PM 33.7142 -111.4439 234° Southwest 418 481 36,000  Level Albuquerque Center
09:38PM 33.6447 -111.5581 234° Southwest 419 482 36,000  Level Albuquerque Center
09:39PM 33.5756 -111.6725 234° Southwest 421 484 36,000  Level Albuquerque Center
09:40PM 33.5058 -111.7858 234° Southwest 421 484 36,000  Level Albuquerque Center
09:41PM 33.4439 -111.9022 237° Southwest 419 482 36,000  Level Albuquerque Center
09:42PM 33.4208 -112.0336 258° West 405 466 36,000  Level Albuquerque Center
09:43PM 33.3969 -112.1650 258° West 403 464 36,000  Level Albuquerque Center
09:44PM 33.3722 -112.2958 257° West 403 464 36,000  Level Albuquerque Center
09:45PM 33.3486 -112.4289 258° West 408 470 36,000  Level Albuquerque Center
09:46PM 33.3192 -112.5867 257° West 406 467 36,000  Level Albuquerque Center
09:47PM 33.2975 -112.7128 258° West 407 468 36,000  Level Albuquerque Center
09:48PM 33.2731 -112.8439 257° West 407 468 36,000  Level Albuquerque Center
09:49PM 33.2492 -112.9747 258° West 406 467 36,000 -540 Level Albuquerque Center
09:50PM 33.2239 -113.1067 257° West 409 471 35,000 -1,020 Descending Albuquerque Center
09:51PM 33.1992 -113.2369 257° West 407 468 34,000 -540 Descending Albuquerque Center
09:52PM 33.1692 -113.3989 258° West 415 478 34,000  Level Albuquerque Center
09:53PM 33.1425 -113.5331 257° West 418 481 34,000  Level Albuquerque Center
09:54PM 33.1172 -113.6669 257° West 417 480 34,000  Level Albuquerque Center
09:55PM 33.0914 -113.7997 257° West 415 478 34,000  Level Albuquerque Center
09:56PM 33.0658 -113.9342 257° West 417 480 34,000  Level Albuquerque Center
09:57PM 33.0397 -114.0669 257° West 416 479 34,000 -300 Level Albuquerque Center
09:58PM 33.0122 -114.2022 256° West 419 482 33,400 -840 Descending Albuquerque Center
09:59PM 32.9875 -114.3367 258° West 419 482 32,400 -1,080 Descending Albuquerque Center
10:00PM 32.9569 -114.4911 257° West 428 493 31,300 -1,020 Descending Los Angeles Center
10:01PM 32.9297 -114.6278 257° West 426 490 30,400 -1,020 Descending Los Angeles Center
10:02PM 32.9011 -114.7667 256° West 432 497 29,300 -1,020 Descending Los Angeles Center
10:03PM 32.8742 -114.9075 257° West 435 501 28,400 -1,080 Descending Los Angeles Center
10:04PM 32.8378 -115.0783 256° West 443 510 27,100 -1,080 Descending Los Angeles Center
10:05PM 32.8081 -115.2194 256° West 441 507 26,200 -960 Descending Los Angeles Center
10:06PM 32.7792 -115.3586 256° West 436 502 25,200 -1,020 Descending Los Angeles Center
10:07PM 32.7506 -115.4958 256° West 430 495 24,200 -1,080 Descending Los Angeles Center
10:08PM 32.7497 -115.6233 270° West 393 452 23,100 -1,560 Descending Los Angeles Center
10:09PM 32.7533 -115.7489 272° West 382 440 21,100 -1,980 Descending Los Angeles Center
10:10PM 32.7572 -115.8706 272° West 372 428 19,100 -2,040 Descending Los Angeles Center
10:11PM 32.7597 -115.9894 271° West 362 417 17,000 -2,160 Descending Los Angeles Center
10:12PM 32.7628 -116.1289 272° West 352 405 14,700 -2,100 Descending Los Angeles Center
10:13PM 32.7656 -116.2422 272° West 344 396 12,700 -2,100 Descending Los Angeles Center
10:14PM 32.7567 -116.3514 264° West 329 379 10,400 -1,440 Descending Los Angeles Center
10:15PM 32.7408 -116.4583 260° West 323 372 9,800 -540 Descending Los Angeles Center
10:16PM 32.7272 -116.5544 260° West 302 348 9,300 -840 Descending Los Angeles Center
10:18PM 32.7139 -116.6472 260° West 287 330 8,100 -1,380 Descending Los Angeles Center
10:19PM 32.7092 -116.7400 267° West 283 326 6,500 -1,020 Descending Los Angeles Center
10:20PM 32.7064 -116.8269 268° West 271 312 6,100 -780 Descending Los Angeles Center
10:20PM 32.6833 -116.9000 249° West 225 259 5,100 -1,380 Descending Southern California TRACON
10:21PM 32.6833 -116.9500 270° West 203 234 3,700 -1,140 Descending Southern California TRACON
10:22PM 32.7000 -117.0167 287° West 197 227 2,900 -900 Descending Southern California TRACON
10:23PM 32.7000 -117.0833 270° West 185 213 1,900 -960 Descending Southern California TRACON
10:24PM 32.7167 -117.1333 292° West 145 167 1,000 -840 Descending Southern California TRACON
10:25PM 32.7217 -117.1403 311° West 152 175 800 -600 Descending Los Angeles Center
10:26PM 32.7319 -117.1867 285° West 139 160 200 -600 Descending Los Angeles Center